Time;durP1;ratioP1;P1;durP2;ratioP2;P2;SDS_P1;SDS_P2;PMS_P1;PMS_P2;Temp;Humidity;BMP_temperature;BMP_pressure;BME280_temperature;BME280_humidity;BME280_pressure;Samples;Min_cycle;Max_cycle;Signal;HPM_P1;HPM_P2
2023/03/06 00:00:46;;;;;;;21.45;11.85;;;;;;;0.14;100.00;100014.88;7399930;19;20018;-71
2023/03/06 00:03:15;;;;;;;23.27;12.45;;;;;;;0.18;100.00;100013.16;7398678;19;20523;-68
2023/03/06 00:05:43;;;;;;;22.48;11.63;;;;;;;0.19;100.00;100010.63;7399399;19;20369;-68
2023/03/06 00:08:12;;;;;;;20.70;11.82;;;;;;;0.23;100.00;100014.06;7399720;19;20092;-69
2023/03/06 00:10:40;;;;;;;17.98;11.15;;;;;;;0.26;100.00;100014.13;7398806;19;20074;-68
2023/03/06 00:13:12;;;;;;;26.58;11.63;;;;;;;0.29;100.00;100008.97;7397161;19;20440;-68
2023/03/06 00:15:44;;;;;;;22.23;11.18;;;;;;;0.32;100.00;100015.03;7399847;19;20021;-68
2023/03/06 00:18:12;;;;;;;22.15;10.95;;;;;;;0.35;100.00;100013.34;7399866;19;20015;-69
2023/03/06 00:20:42;;;;;;;18.65;11.13;;;;;;;0.35;100.00;100001.28;7396588;19;20536;-68
2023/03/06 00:23:11;;;;;;;21.52;12.07;;;;;;;0.36;100.00;100000.44;7396727;19;20034;-69
2023/03/06 00:25:43;;;;;;;21.45;11.73;;;;;;;0.40;100.00;100002.19;7399082;19;20022;-69
2023/03/06 00:28:13;;;;;;;19.30;11.10;;;;;;;0.42;100.00;99997.91;7398746;19;20435;-69
2023/03/06 00:30:46;;;;;;;22.20;10.82;;;;;;;0.43;100.00;99998.75;7399415;19;20027;-69
2023/03/06 00:33:14;;;;;;;18.17;10.50;;;;;;;0.44;100.00;100003.94;7398435;19;20019;-69
2023/03/06 00:35:43;;;;;;;20.13;10.02;;;;;;;0.46;100.00;99996.22;7398810;19;20014;-68
2023/03/06 00:38:13;;;;;;;20.50;10.30;;;;;;;0.46;100.00;99991.06;7398789;19;20074;-68
2023/03/06 00:40:42;;;;;;;18.25;10.05;;;;;;;0.46;100.00;99991.06;7398598;19;20082;-68
2023/03/06 00:43:10;;;;;;;13.88;9.82;;;;;;;0.46;100.00;99991.91;7397818;19;20019;-68
2023/03/06 00:45:39;;;;;;;15.73;9.98;;;;;;;0.47;100.00;99987.63;7396049;19;20086;-69
2023/03/06 00:48:10;;;;;;;18.08;10.27;;;;;;;0.47;100.00;99987.63;7398074;19;20017;-69
2023/03/06 00:50:38;;;;;;;17.02;9.65;;;;;;;0.47;100.00;99982.47;7398547;19;20074;-68
2023/03/06 00:53:07;;;;;;;22.67;11.38;;;;;;;0.45;100.00;99979.84;7397820;19;20024;-69
2023/03/06 00:55:35;;;;;;;18.58;10.25;;;;;;;0.46;100.00;99975.56;7397942;19;20017;-69
2023/03/06 00:58:03;;;;;;;17.00;10.45;;;;;;;0.45;100.00;99976.41;7397782;19;20503;-69
2023/03/06 01:00:32;;;;;;;19.52;11.07;;;;;;;0.44;100.00;99978.16;7398207;19;20070;-68
2023/03/06 01:03:00;;;;;;;19.42;10.23;;;;;;;0.45;100.00;99971.25;7397599;19;20082;-69
2023/03/06 01:05:32;;;;;;;18.70;11.10;;;;;;;0.44;100.00;99972.97;7397480;19;20017;-69
2023/03/06 01:08:01;;;;;;;21.63;11.10;;;;;;;0.43;100.00;99970.38;7397546;19;20007;-68
2023/03/06 01:10:29;;;;;;;19.60;11.43;;;;;;;0.43;100.00;99966.09;7397308;19;20085;-68
2023/03/06 01:12:58;;;;;;;16.48;9.98;;;;;;;0.43;100.00;99960.94;7397113;19;20078;-69
2023/03/06 01:15:26;;;;;;;19.25;10.43;;;;;;;0.43;100.00;99950.59;7397068;19;20014;-68
2023/03/06 01:17:55;;;;;;;16.80;11.02;;;;;;;0.42;100.00;99943.72;7397524;19;20014;-68
2023/03/06 01:20:24;;;;;;;17.05;10.95;;;;;;;0.42;100.00;99942.84;7396875;19;20493;-69
2023/03/06 01:22:56;;;;;;;18.17;10.85;;;;;;;0.40;100.00;99935.06;7392600;19;20074;-70
2023/03/06 01:25:25;;;;;;;18.23;10.00;;;;;;;0.40;100.00;99926.50;7395139;19;20017;-70
2023/03/06 01:27:53;;;;;;;17.77;10.48;;;;;;;0.40;100.00;99929.91;7396726;19;20373;-70
2023/03/06 01:30:22;;;;;;;19.23;11.57;;;;;;;0.39;100.00;99923.06;7397010;19;20022;-70
2023/03/06 01:32:51;;;;;;;17.05;9.68;;;;;;;0.40;100.00;99922.19;7395170;19;20019;-70
2023/03/06 01:35:19;;;;;;;17.27;11.00;;;;;;;0.42;100.00;99927.38;7396458;19;20019;-70
2023/03/06 01:37:48;;;;;;;21.67;11.48;;;;;;;0.42;100.00;99917.91;7396700;19;20022;-70
2023/03/06 01:40:19;;;;;;;21.52;11.30;;;;;;;0.43;100.00;99918.75;7396732;19;20086;-69
2023/03/06 01:42:49;;;;;;;18.13;10.35;;;;;;;0.41;100.00;99907.56;7396754;19;20025;-69
2023/03/06 01:45:54;;;;;;;18.98;10.40;;;;;;;0.43;100.00;99904.16;7394673;19;20489;-69
2023/03/06 01:48:24;;;;;;;19.38;10.52;;;;;;;0.44;100.00;99905.88;7396236;19;20544;-69
2023/03/06 01:50:54;;;;;;;18.23;10.65;;;;;;;0.44;100.00;99911.03;7396518;19;20086;-70
2023/03/06 01:53:23;;;;;;;19.77;11.30;;;;;;;0.45;100.00;99902.41;7396276;19;20015;-71
2023/03/06 01:55:54;;;;;;;17.95;10.27;;;;;;;0.45;100.00;99905.00;7396118;19;20024;-70
2023/03/06 01:58:23;;;;;;;14.02;9.80;;;;;;;0.46;100.00;99903.31;7396563;19;20070;-70
2023/03/06 02:00:52;;;;;;;20.30;11.02;;;;;;;0.46;100.00;99899.00;7395689;19;20496;-70
2023/03/06 02:03:24;;;;;;;18.10;10.85;;;;;;;0.44;100.00;99898.13;7395334;19;20082;-71
2023/03/06 02:05:52;;;;;;;16.88;11.07;;;;;;;0.47;100.00;99898.13;7394691;19;20098;-70
2023/03/06 02:08:23;;;;;;;19.40;11.77;;;;;;;0.46;100.00;99891.25;7395909;19;20032;-71
2023/03/06 02:11:01;;;;;;;18.85;10.68;;;;;;;0.46;100.00;99896.41;7396195;19;20413;-70
2023/03/06 02:13:29;;;;;;;20.55;11.07;;;;;;;0.47;100.00;99895.56;7396058;19;20014;-68
2023/03/06 02:15:58;;;;;;;19.20;10.32;;;;;;;0.47;100.00;99889.53;7395555;19;20014;-69
2023/03/06 02:18:27;;;;;;;14.88;9.77;;;;;;;0.46;100.00;99883.50;7395251;19;20082;-69
2023/03/06 02:20:58;;;;;;;15.27;9.60;;;;;;;0.47;100.00;99886.97;7393806;19;20014;-69
2023/03/06 02:23:33;;;;;;;16.30;9.70;;;;;;;0.48;100.00;99881.81;7393509;19;20019;-69
2023/03/06 02:26:05;;;;;;;13.55;8.98;;;;;;;0.47;100.00;99884.38;7395059;19;20017;-69
2023/03/06 02:28:33;;;;;;;15.82;9.23;;;;;;;0.47;100.00;99874.91;7394950;19;20361;-69
2023/03/06 02:31:02;;;;;;;13.50;9.50;;;;;;;0.50;100.00;99875.78;7394847;19;20486;-69
2023/03/06 02:33:31;;;;;;;14.13;8.40;;;;;;;0.49;100.00;99874.91;7393946;19;20496;-69
2023/03/06 02:36:02;;;;;;;11.55;8.48;;;;;;;0.50;100.00;99870.63;7402810;19;20019;-69
2023/03/06 02:38:35;;;;;;;13.25;9.23;;;;;;;0.52;100.00;99871.47;7403153;19;20412;-68
2023/03/06 02:41:09;;;;;;;13.30;9.55;;;;;;;0.52;100.00;99881.81;7400092;19;20086;-68
2023/03/06 02:43:44;;;;;;;14.38;9.95;;;;;;;0.53;100.00;99874.09;7401350;19;20082;-68
2023/03/06 02:46:19;;;;;;;17.35;9.00;;;;;;;0.51;100.00;99873.22;7402905;19;20015;-68
2023/03/06 02:48:47;;;;;;;11.95;8.75;;;;;;;0.53;100.00;99873.22;7399558;19;20101;-69
2023/03/06 02:51:16;;;;;;;14.93;8.73;;;;;;;0.54;100.00;99873.22;7402318;19;20023;-68
2023/03/06 02:53:44;;;;;;;13.30;8.63;;;;;;;0.55;100.00;99887.00;7400436;19;20086;-69
2023/03/06 02:56:16;;;;;;;12.18;7.50;;;;;;;0.56;100.00;99861.19;7403301;19;20422;-69
2023/03/06 02:58:45;;;;;;;10.93;7.00;;;;;;;0.60;100.00;99880.16;7403499;19;20048;-69
2023/03/06 03:01:13;;;;;;;11.20;7.50;;;;;;;0.60;100.00;99864.66;7402745;19;20082;-69
2023/03/06 03:03:41;;;;;;;8.48;6.70;;;;;;;0.63;100.00;99869.81;7398977;19;20018;-68
2023/03/06 03:06:10;;;;;;;10.73;6.30;;;;;;;0.64;100.00;99869.84;7401487;19;20552;-68
2023/03/06 03:08:39;;;;;;;9.32;6.10;;;;;;;0.65;100.00;99865.53;7401314;19;20024;-68
2023/03/06 03:11:08;;;;;;;10.32;6.05;;;;;;;0.69;100.00;99864.69;7401716;19;20091;-68
2023/03/06 03:13:39;;;;;;;9.07;5.70;;;;;;;0.70;100.00;99868.16;7399832;19;20018;-68
2023/03/06 03:16:10;;;;;;;11.30;6.28;;;;;;;0.70;100.00;99856.09;7401215;19;20014;-68
2023/03/06 03:18:38;;;;;;;10.02;5.97;;;;;;;0.75;100.00;99863.88;7401024;19;20365;-69
2023/03/06 03:21:12;;;;;;;7.63;5.63;;;;;;;0.77;100.00;99851.81;7401222;19;20038;-68
2023/03/06 03:23:41;;;;;;;9.10;5.70;;;;;;;0.78;99.82;99857.00;7398829;19;20424;-68
2023/03/06 03:26:11;;;;;;;7.25;4.97;;;;;;;0.80;100.00;99857.84;7398188;19;20078;-68
2023/03/06 03:28:42;;;;;;;7.43;5.03;;;;;;;0.80;100.00;99857.84;7400971;19;20081;-68
2023/03/06 03:31:13;;;;;;;8.77;6.35;;;;;;;0.81;100.00;99851.84;7401116;19;20073;-68
2023/03/06 03:33:42;;;;;;;10.48;5.03;;;;;;;0.81;100.00;99838.91;7399691;19;20099;-69
2023/03/06 03:36:10;;;;;;;7.75;5.38;;;;;;;0.82;100.00;99834.59;7400515;19;20033;-69
2023/03/06 03:38:39;;;;;;;8.68;5.57;;;;;;;0.83;100.00;99830.31;7400324;19;20090;-68
2023/03/06 03:41:07;;;;;;;9.48;5.90;;;;;;;0.80;100.00;99821.69;7400091;19;20015;-69
2023/03/06 03:43:36;;;;;;;8.70;5.93;;;;;;;0.81;100.00;99835.50;7397976;19;20082;-69
2023/03/06 03:46:07;;;;;;;7.85;5.82;;;;;;;0.78;100.00;99836.34;7396307;19;20018;-69
2023/03/06 03:48:35;;;;;;;9.57;6.30;;;;;;;0.76;100.00;99827.72;7400814;19;20378;-68
2023/03/06 03:51:07;;;;;;;8.77;6.28;;;;;;;0.74;100.00;99832.00;7399946;19;20017;-69
2023/03/06 03:53:35;;;;;;;8.57;7.03;;;;;;;0.74;100.00;99826.84;7399307;19;20018;-69
2023/03/06 03:56:04;;;;;;;8.02;6.90;;;;;;;0.73;100.00;99832.00;7399621;19;20094;-69
2023/03/06 03:58:32;;;;;;;13.23;7.78;;;;;;;0.69;100.00;99830.28;7399982;19;20019;-70
2023/03/06 04:01:01;;;;;;;14.35;7.68;;;;;;;0.70;100.00;99824.25;7399593;19;20417;-69
2023/03/06 04:03:32;;;;;;;12.45;7.75;;;;;;;0.67;100.00;99827.69;7398835;19;20082;-69
2023/03/06 04:06:00;;;;;;;15.27;8.75;;;;;;;0.67;100.00;99821.66;7398229;19;20019;-69
2023/03/06 04:08:29;;;;;;;13.07;8.82;;;;;;;0.66;100.00;99823.38;7399694;19;20015;-69
2023/03/06 04:10:58;;;;;;;12.90;9.40;;;;;;;0.64;100.00;99822.50;7399330;19;20491;-69
2023/03/06 04:13:26;;;;;;;17.67;8.82;;;;;;;0.64;100.00;99823.38;7398391;19;20019;-69
2023/03/06 04:15:57;;;;;;;14.02;8.85;;;;;;;0.62;100.00;99814.75;7396682;19;20572;-69
2023/03/06 04:18:26;;;;;;;14.75;9.25;;;;;;;0.62;100.00;99822.50;7400128;19;20033;-70
2023/03/06 04:20:57;;;;;;;18.98;9.77;;;;;;;0.63;100.00;99816.50;7399337;19;20025;-69
2023/03/06 04:23:26;;;;;;;13.45;8.98;;;;;;;0.61;100.00;99815.59;7396689;19;20015;-68
2023/03/06 04:25:55;;;;;;;13.00;9.10;;;;;;;0.62;100.00;99812.19;7397052;19;20082;-69
2023/03/06 04:28:23;;;;;;;13.60;9.18;;;;;;;0.64;100.00;99822.50;7399079;19;20014;-69
2023/03/06 04:30:52;;;;;;;14.73;9.73;;;;;;;0.63;100.00;99820.78;7398951;19;20010;-69
2023/03/06 04:33:20;;;;;;;13.98;9.13;;;;;;;0.62;100.00;99811.28;7398041;19;20094;-69
2023/03/06 04:35:49;;;;;;;14.50;10.00;;;;;;;0.62;100.00;99811.28;7398517;19;20084;-69
2023/03/06 04:38:20;;;;;;;14.27;9.60;;;;;;;0.61;100.00;99809.59;7398687;19;20014;-69
2023/03/06 04:40:49;;;;;;;12.20;9.02;;;;;;;0.61;100.00;99817.34;7399011;19;20430;-70
2023/03/06 04:43:17;;;;;;;12.98;9.05;;;;;;;0.60;100.00;99815.63;7397774;19;20048;-69
2023/03/06 04:45:45;;;;;;;10.25;7.85;;;;;;;0.62;100.00;99814.75;7396857;19;20090;-69
2023/03/06 04:48:15;;;;;;;11.77;8.85;;;;;;;0.61;100.00;99812.19;7398046;19;20017;-69
2023/03/06 04:50:44;;;;;;;12.70;8.43;;;;;;;0.63;100.00;99813.91;7397546;19;20406;-69
2023/03/06 04:53:13;;;;;;;10.70;8.60;;;;;;;0.63;100.00;99813.03;7396964;19;20078;-69
2023/03/06 04:55:44;;;;;;;17.38;8.55;;;;;;;0.64;100.00;99809.59;7397922;19;20019;-69
2023/03/06 04:58:13;;;;;;;13.02;8.23;;;;;;;0.60;100.00;99808.72;7395653;19;20097;-69
2023/03/06 05:00:42;;;;;;;12.38;9.48;;;;;;;0.67;100.00;99806.16;7397542;19;20509;-69
2023/03/06 05:03:10;;;;;;;14.50;8.93;;;;;;;0.66;100.00;99807.88;7397262;19;20078;-69
2023/03/06 05:05:39;;;;;;;11.70;8.68;;;;;;;0.66;100.00;99802.72;7396022;19;20078;-69
2023/03/06 05:08:08;;;;;;;13.27;8.40;;;;;;;0.66;100.00;99805.31;7395317;19;20082;-69
2023/03/06 05:10:37;;;;;;;11.23;8.43;;;;;;;0.65;100.00;99801.84;7397361;19;20019;-69
2023/03/06 05:13:08;;;;;;;12.68;8.68;;;;;;;0.65;100.00;99798.41;7394479;19;20019;-68
2023/03/06 05:15:36;;;;;;;12.20;9.07;;;;;;;0.65;100.00;99807.00;7395075;19;20094;-69
2023/03/06 05:18:05;;;;;;;12.35;9.25;;;;;;;0.65;100.00;99803.59;7396651;19;20466;-68
2023/03/06 05:20:33;;;;;;;11.15;8.48;;;;;;;0.64;100.00;99799.28;7396452;19;20545;-68
2023/03/06 05:23:02;;;;;;;12.73;9.35;;;;;;;0.63;100.00;99800.13;7394945;19;20017;-69
2023/03/06 05:25:30;;;;;;;25.52;12.15;;;;;;;0.62;100.00;99796.69;7395788;19;20015;-68
2023/03/06 05:27:59;;;;;;;12.68;9.43;;;;;;;0.61;100.00;99799.28;7396653;19;20105;-69
2023/03/06 05:30:30;;;;;;;13.75;9.95;;;;;;;0.60;100.00;99803.56;7396477;19;20018;-67
2023/03/06 05:32:58;;;;;;;14.65;10.32;;;;;;;0.61;100.00;99801.84;7395682;19;20427;-69
2023/03/06 05:35:27;;;;;;;16.40;10.10;;;;;;;0.61;100.00;99802.69;7396195;19;20133;-69
2023/03/06 05:37:55;;;;;;;16.55;11.80;;;;;;;0.61;100.00;99799.28;7396261;19;20015;-69
2023/03/06 05:40:24;;;;;;;13.65;10.77;;;;;;;0.61;100.00;99799.28;7394279;19;20081;-69
2023/03/06 05:42:52;;;;;;;16.48;10.45;;;;;;;0.61;100.00;99802.69;7395795;19;20018;-70
2023/03/06 05:45:21;;;;;;;15.93;10.48;;;;;;;0.61;100.00;99804.44;7394398;19;20580;-68
2023/03/06 05:47:52;;;;;;;18.10;11.55;;;;;;;0.62;100.00;99800.97;7395677;19;20090;-71
2023/03/06 05:50:20;;;;;;;17.05;11.15;;;;;;;0.62;100.00;99796.69;7395235;19;20035;-70
2023/03/06 05:52:49;;;;;;;16.38;11.57;;;;;;;0.61;100.00;99794.09;7395232;19;20439;-70
2023/03/06 05:55:18;;;;;;;18.42;12.27;;;;;;;0.63;100.00;99803.59;7393613;19;20023;-70
2023/03/06 05:57:46;;;;;;;17.70;11.88;;;;;;;0.61;100.00;99799.28;7395842;19;20022;-71
2023/03/06 06:00:17;;;;;;;17.15;11.73;;;;;;;0.60;100.00;99789.78;7395651;19;20026;-71
2023/03/06 06:02:45;;;;;;;16.27;10.70;;;;;;;0.63;100.00;99802.69;7397460;19;20014;-70
2023/03/06 06:05:17;;;;;;;15.25;10.65;;;;;;;0.63;100.00;99801.00;7394658;19;20178;-71
2023/03/06 06:07:45;;;;;;;21.33;12.18;;;;;;;0.63;100.00;99803.59;7393385;19;20485;-72
2023/03/06 06:10:14;;;;;;;19.88;12.40;;;;;;;0.63;100.00;99800.13;7394596;19;20501;-70
2023/03/06 06:12:43;;;;;;;16.77;12.48;;;;;;;0.64;100.00;99804.44;7394788;19;20078;-72
2023/03/06 06:15:18;;;;;;;18.42;12.70;;;;;;;0.64;100.00;99809.59;7395226;19;20014;-71
2023/03/06 06:17:46;;;;;;;18.20;12.50;;;;;;;0.65;100.00;99811.31;7394480;19;20015;-71
2023/03/06 06:20:40;;;;;;;16.90;11.88;;;;;;;0.63;100.00;99803.59;7394860;19;20011;-71
2023/03/06 06:23:15;;;;;;;17.95;12.55;;;;;;;0.64;100.00;99807.00;7391830;19;20018;-70
2023/03/06 06:25:50;;;;;;;19.02;12.95;;;;;;;0.62;100.00;99807.00;7392477;19;20019;-69
2023/03/06 06:28:18;;;;;;;17.75;11.95;;;;;;;0.63;100.00;99818.19;7393561;19;20476;-71
2023/03/06 06:30:47;;;;;;;17.02;11.13;;;;;;;0.63;100.00;99813.91;7392382;19;20026;-70
2023/03/06 06:33:15;;;;;;;18.50;11.65;;;;;;;0.64;100.00;99814.75;7394065;19;20019;-71
2023/03/06 06:35:46;;;;;;;20.05;12.32;;;;;;;0.64;100.00;99812.19;7394557;19;20010;-70
2023/03/06 06:38:15;;;;;;;17.55;11.30;;;;;;;0.64;100.00;99815.63;7393463;19;20015;-69
2023/03/06 06:40:44;;;;;;;14.75;8.40;;;;;;;0.64;100.00;99822.50;7395262;19;20015;-69
2023/03/06 06:43:12;;;;;;;7.70;4.60;;;;;;;0.61;100.00;99832.84;7394333;19;20074;-68
2023/03/06 06:45:42;;;;;;;6.85;3.70;;;;;;;0.54;99.60;99828.50;7392349;19;20158;-69
2023/03/06 06:48:11;;;;;;;4.35;3.58;;;;;;;0.50;99.90;99824.19;7395033;19;20010;-69
2023/03/06 06:50:40;;;;;;;5.30;3.10;;;;;;;0.43;99.56;99829.31;7394224;19;20491;-69
2023/03/06 06:53:11;;;;;;;7.28;3.50;;;;;;;0.40;99.50;99829.28;7393797;19;20082;-70
2023/03/06 06:55:39;;;;;;;5.03;3.45;;;;;;;0.36;99.89;99830.13;7394902;19;20028;-69
2023/03/06 06:58:07;;;;;;;5.00;3.00;;;;;;;0.33;99.29;99835.28;7393988;19;20502;-69
2023/03/06 07:00:37;;;;;;;4.97;4.10;;;;;;;0.31;100.00;99837.81;7394624;19;20022;-69
2023/03/06 07:03:05;;;;;;;5.45;3.50;;;;;;;0.31;100.00;99831.81;7391883;19;20091;-69
2023/03/06 07:05:33;;;;;;;4.13;3.38;;;;;;;0.31;100.00;99831.81;7392936;19;20513;-69
2023/03/06 07:08:02;;;;;;;4.60;3.30;;;;;;;0.31;100.00;99826.66;7394059;19;20031;-69
2023/03/06 07:10:34;;;;;;;6.80;3.05;;;;;;;0.32;100.00;99833.53;7393649;19;20478;-69
2023/03/06 07:13:03;;;;;;;6.45;3.67;;;;;;;0.32;100.00;99828.38;7393716;19;20026;-69
2023/03/06 07:15:32;;;;;;;4.60;3.15;;;;;;;0.33;100.00;99837.84;7393813;19;20086;-70
2023/03/06 07:18:00;;;;;;;5.75;3.53;;;;;;;0.33;100.00;99835.28;7391928;19;20038;-70
2023/03/06 07:20:30;;;;;;;4.55;3.50;;;;;;;0.32;100.00;99828.38;7393889;19;20082;-70
2023/03/06 07:22:59;;;;;;;5.68;2.90;;;;;;;0.32;100.00;99829.22;7399306;19;20010;-69
2023/03/06 07:25:27;;;;;;;3.13;2.45;;;;;;;0.34;100.00;99824.06;7399913;19;20022;-69
2023/03/06 07:27:58;;;;;;;3.60;2.45;;;;;;;0.33;100.00;99835.28;7397306;19;20091;-69
2023/03/06 07:30:27;;;;;;;3.20;1.60;;;;;;;0.34;100.00;99828.38;7400954;19;20010;-69
2023/03/06 07:32:56;;;;;;;3.92;2.00;;;;;;;0.33;100.00;99835.28;7399732;19;20018;-69
2023/03/06 07:35:26;;;;;;;4.38;2.42;;;;;;;0.30;100.00;99830.09;7398126;19;20019;-69
2023/03/06 07:37:55;;;;;;;5.80;3.35;;;;;;;0.31;100.00;99834.41;7397997;19;20026;-71
2023/03/06 07:40:24;;;;;;;13.73;7.30;;;;;;;0.32;100.00;99833.53;7399728;19;20015;-70
2023/03/06 07:42:58;;;;;;;7.32;4.10;;;;;;;0.33;100.00;99835.28;7398865;19;20031;-69
2023/03/06 07:45:27;;;;;;;4.03;3.10;;;;;;;0.35;100.00;99836.13;7400073;19;20078;-70
2023/03/06 07:47:55;;;;;;;4.85;3.20;;;;;;;0.37;100.00;99831.84;7398860;19;20426;-69
2023/03/06 07:50:24;;;;;;;6.78;5.70;;;;;;;0.41;100.00;99836.16;7398498;19;20090;-69
2023/03/06 07:52:53;;;;;;;9.75;7.00;;;;;;;0.44;100.00;99836.19;7398745;19;20082;-70
2023/03/06 07:55:22;;;;;;;7.03;6.03;;;;;;;0.48;100.00;99834.47;7400280;19;20077;-69
2023/03/06 07:57:52;;;;;;;7.78;4.30;;;;;;;0.52;100.00;99838.81;7399597;19;20077;-71
2023/03/06 08:00:24;;;;;;;8.45;4.10;;;;;;;0.54;100.00;99837.09;7396792;19;20018;-68
2023/03/06 08:02:52;;;;;;;7.15;3.75;;;;;;;0.56;100.00;99835.38;7397811;19;20041;-69
2023/03/06 08:05:21;;;;;;;8.52;4.30;;;;;;;0.59;100.00;99834.53;7399210;19;20031;-69
2023/03/06 08:07:49;;;;;;;5.63;3.60;;;;;;;0.55;100.00;99820.75;7399354;19;20093;-69
2023/03/06 08:10:19;;;;;;;5.50;3.20;;;;;;;0.60;100.00;99829.38;7399874;19;20078;-68
2023/03/06 08:12:47;;;;;;;5.00;3.65;;;;;;;0.65;100.00;99834.56;7397142;19;20031;-70
2023/03/06 08:15:16;;;;;;;4.13;2.70;;;;;;;0.67;100.00;99838.03;7398785;19;20077;-70
2023/03/06 08:17:47;;;;;;;7.45;4.45;;;;;;;0.68;100.00;99836.28;7398656;19;20018;-70
2023/03/06 08:20:16;;;;;;;6.20;3.63;;;;;;;0.70;100.00;99835.44;7399417;19;20375;-70
2023/03/06 08:22:44;;;;;;;8.07;3.88;;;;;;;0.71;100.00;99831.13;7397737;19;20191;-69
2023/03/06 08:25:14;;;;;;;5.80;3.85;;;;;;;0.71;100.00;99828.53;7399283;19;20506;-69
2023/03/06 08:27:43;;;;;;;9.15;6.20;;;;;;;0.72;100.00;99833.75;7396620;19;20015;-69
2023/03/06 08:30:13;;;;;;;8.35;5.65;;;;;;;0.72;100.00;99838.03;7398509;19;20035;-70
2023/03/06 08:32:42;;;;;;;10.65;4.05;;;;;;;0.72;100.00;99830.28;7397763;19;20083;-70
2023/03/06 08:35:13;;;;;;;5.72;3.72;;;;;;;0.73;100.00;99832.84;7397736;19;20415;-70
2023/03/06 08:37:42;;;;;;;6.80;3.03;;;;;;;0.75;100.00;99825.13;7398688;19;20090;-70
2023/03/06 08:40:12;;;;;;;4.03;2.78;;;;;;;0.76;100.00;99826.88;7398463;19;20085;-69
2023/03/06 08:42:40;;;;;;;5.15;2.95;;;;;;;0.76;100.00;99832.88;7397941;19;20086;-70
2023/03/06 08:45:10;;;;;;;3.35;2.25;;;;;;;0.80;100.00;99834.59;7398341;19;20078;-69
2023/03/06 08:47:39;;;;;;;3.85;3.03;;;;;;;0.80;99.21;99836.34;7395466;19;20019;-69
2023/03/06 08:50:08;;;;;;;5.03;2.85;;;;;;;0.78;99.69;99833.75;7398401;19;20033;-69
2023/03/06 08:52:39;;;;;;;5.10;3.53;;;;;;;0.78;100.00;99838.03;7397193;19;20085;-69
2023/03/06 08:55:08;;;;;;;4.63;2.88;;;;;;;0.78;99.50;99843.22;7398150;19;20078;-69
2023/03/06 08:57:37;;;;;;;4.28;2.70;;;;;;;0.80;100.00;99836.34;7397784;19;20035;-69
2023/03/06 09:00:07;;;;;;;3.67;2.47;;;;;;;0.84;100.00;99842.38;7397606;19;20095;-69
2023/03/06 09:02:36;;;;;;;5.55;2.78;;;;;;;0.89;100.00;99845.84;7398000;19;20018;-70
2023/03/06 09:05:06;;;;;;;3.45;2.42;;;;;;;0.91;100.00;99839.81;7397244;19;20569;-69
2023/03/06 09:07:34;;;;;;;4.03;2.67;;;;;;;0.93;100.00;99842.41;7395843;19;20388;-69
2023/03/06 09:10:06;;;;;;;5.40;2.80;;;;;;;0.97;100.00;99844.13;7397386;19;20014;-69
2023/03/06 09:12:37;;;;;;;4.60;2.67;;;;;;;0.98;100.00;99838.97;7394946;19;20380;-70
2023/03/06 09:15:06;;;;;;;4.55;2.92;;;;;;;1.02;100.00;99852.75;7394947;19;20030;-70
2023/03/06 09:17:34;;;;;;;3.47;2.72;;;;;;;1.06;100.00;99844.19;7397323;19;20085;-70
2023/03/06 09:20:04;;;;;;;6.20;3.75;;;;;;;1.11;100.00;99844.16;7396641;19;20082;-69
2023/03/06 09:22:32;;;;;;;4.22;3.33;;;;;;;1.14;100.00;99839.88;7396186;19;20082;-69
2023/03/06 09:25:01;;;;;;;4.60;3.22;;;;;;;1.19;100.00;99842.47;7397378;19;20078;-70
2023/03/06 09:27:32;;;;;;;5.38;3.65;;;;;;;1.25;100.00;99833.84;7396158;19;20544;-70
2023/03/06 09:30:00;;;;;;;6.15;3.80;;;;;;;1.30;100.00;99838.19;7397560;19;20022;-70
2023/03/06 09:32:29;;;;;;;4.32;2.67;;;;;;;1.34;100.00;99831.31;7396225;19;20552;-70
2023/03/06 09:34:57;;;;;;;5.47;3.42;;;;;;;1.40;100.00;99833.03;7396944;19;20074;-70
2023/03/06 09:37:26;;;;;;;4.03;2.67;;;;;;;1.45;100.00;99831.31;7396334;19;20498;-70
2023/03/06 09:39:54;;;;;;;7.05;4.32;;;;;;;1.51;100.00;99833.91;7396483;19;20079;-70
2023/03/06 09:42:24;;;;;;;7.63;4.13;;;;;;;1.55;100.00;99830.44;7396039;19;20077;-69
2023/03/06 09:44:58;;;;;;;6.47;3.85;;;;;;;1.57;99.65;99825.31;7392518;19;20026;-70
2023/03/06 09:47:46;;;;;;;8.40;4.32;;;;;;;1.59;100.00;99826.13;7394747;19;20082;-70
2023/03/06 09:50:24;;;;;;;5.05;4.10;;;;;;;1.66;100.00;99825.28;7396449;19;20070;-69
2023/03/06 09:53:04;;;;;;;4.20;3.70;;;;;;;1.69;100.00;99822.69;7396896;19;20018;-70
2023/03/06 09:55:37;;;;;;;4.82;3.97;;;;;;;1.70;100.00;99819.25;7396350;19;20077;-74
2023/03/06 09:58:13;;;;;;;5.22;3.95;;;;;;;1.76;100.00;99827.00;7396393;19;20031;-71
2023/03/06 10:00:53;;;;;;;7.03;4.65;;;;;;;1.82;100.00;99825.28;7394569;19;20022;-69
2023/03/06 10:03:26;;;;;;;7.82;6.30;;;;;;;1.85;100.00;99828.72;7395209;19;20026;-70
2023/03/06 10:05:59;;;;;;;9.63;7.03;;;;;;;1.87;98.98;99836.47;7396063;19;20099;-70
2023/03/06 10:08:34;;;;;;;6.23;4.57;;;;;;;1.85;99.08;99831.31;7394055;19;20847;-70
2023/03/06 10:11:07;;;;;;;6.85;5.47;;;;;;;1.86;99.61;99832.16;7394555;19;20011;-71
2023/03/06 10:13:41;;;;;;;13.65;8.65;;;;;;;1.87;99.56;99841.66;7394371;19;20066;-70
2023/03/06 10:16:29;;;;;;;5.50;4.55;;;;;;;1.86;99.54;99830.44;7394797;19;20422;-70
2023/03/06 10:19:02;;;;;;;6.57;3.95;;;;;;;1.86;99.07;99832.16;7395163;19;20027;-70
2023/03/06 10:21:44;;;;;;;6.20;5.30;;;;;;;1.82;98.77;99825.28;7395184;19;20415;-70
2023/03/06 10:24:25;;;;;;;5.70;4.63;;;;;;;1.82;98.76;99830.44;7393185;19;20096;-70
2023/03/06 10:27:00;;;;;;;4.60;3.33;;;;;;;1.81;99.51;99826.13;7394740;19;20077;-69
2023/03/06 10:29:46;;;;;;;5.30;4.50;;;;;;;1.81;98.45;99826.13;7394843;19;20414;-71
2023/03/06 10:32:28;;;;;;;6.93;4.00;;;;;;;1.79;97.95;99821.84;7393636;19;20014;-69
2023/03/06 10:35:00;;;;;;;4.45;3.45;;;;;;;1.77;97.32;99823.56;7393985;19;20537;-70
2023/03/06 10:37:31;;;;;;;7.05;4.15;;;;;;;1.75;98.16;99820.09;7393039;19;20018;-70
2023/03/06 10:40:05;;;;;;;6.28;3.85;;;;;;;1.77;98.54;99823.56;7394433;19;20029;-70
2023/03/06 10:42:33;;;;;;;9.80;5.00;;;;;;;1.79;98.55;99820.97;7394707;19;20021;-70
2023/03/06 10:45:09;;;;;;;8.10;5.32;;;;;;;1.75;97.40;99814.94;7394238;19;20098;-70
2023/03/06 10:47:41;;;;;;;6.90;4.60;;;;;;;1.75;98.00;99830.44;7393816;19;20019;-69
2023/03/06 10:50:25;;;;;;;6.50;4.25;;;;;;;1.73;96.34;99820.97;7396215;19;20074;-70
2023/03/06 10:53:06;;;;;;;7.38;4.45;;;;;;;1.66;95.90;99829.59;7392381;19;20078;-70
2023/03/06 10:55:36;;;;;;;6.43;4.10;;;;;;;1.58;94.88;99821.81;7398099;19;20025;-70
2023/03/06 10:58:21;;;;;;;7.20;4.80;;;;;;;1.46;94.76;99833.03;7402353;19;20010;-70
2023/03/06 11:01:01;;;;;;;;;;;;;;;1.40;94.81;99831.31;7403176;19;20086;-70
2023/03/06 11:03:32;;;;;;;4.72;3.70;;;;;;;1.36;96.61;99831.31;7400201;19;19922;-70
2023/03/06 11:06:06;;;;;;;5.07;3.28;;;;;;;1.36;97.28;99834.75;7401941;19;20074;-70
2023/03/06 11:08:35;;;;;;;4.88;3.20;;;;;;;1.30;95.73;99832.13;7398828;19;20077;-70
2023/03/06 11:11:05;;;;;;;8.35;3.35;;;;;;;1.28;96.74;99831.31;7400831;19;20019;-70
2023/03/06 11:13:36;;;;;;;3.83;2.22;;;;;;;1.25;97.22;99833.84;7397764;19;20078;-71
2023/03/06 11:16:19;;;;;;;4.93;2.55;;;;;;;1.23;97.13;99830.44;7399639;19;20019;-70
2023/03/06 11:19:02;;;;;;;4.32;2.40;;;;;;;1.22;96.59;99828.69;7400789;19;20485;-70
2023/03/06 11:21:33;;;;;;;2.90;2.00;;;;;;;1.21;94.86;99829.56;7400399;19;20018;-71
2023/03/06 11:24:08;;;;;;;2.70;1.67;;;;;;;1.19;95.55;99828.69;7398487;19;20083;-71
2023/03/06 11:26:42;;;;;;;4.65;1.92;;;;;;;1.16;97.16;99826.94;7399352;19;20585;-72
2023/03/06 11:29:26;;;;;;;3.03;2.30;;;;;;;1.17;97.57;99830.41;7398543;19;20089;-71
2023/03/06 11:31:59;;;;;;;2.88;1.80;;;;;;;1.20;97.21;99825.25;7401388;19;20019;-70
2023/03/06 11:34:40;;;;;;;3.90;1.70;;;;;;;1.17;97.08;99820.09;7398104;19;20078;-71
2023/03/06 11:37:19;;;;;;;3.20;1.50;;;;;;;1.17;96.86;99817.50;7397673;19;20035;-69
2023/03/06 11:39:54;;;;;;;2.58;1.90;;;;;;;1.16;98.33;99814.03;7401176;19;20082;-70
2023/03/06 11:42:28;;;;;;;2.38;1.83;;;;;;;1.18;97.12;99812.31;7401333;19;20405;-69
2023/03/06 11:45:08;;;;;;;5.18;2.42;;;;;;;1.16;97.39;99814.03;7400161;19;20502;-70